sensor_id;sensor_type;location;lat;lon;timestamp;P1;durP1;ratioP1;P2;durP2;ratioP2
10293;SDS011;5192;50.328;7.610;2023-07-31T00:01:14;4.63;;;2.85;;
10293;SDS011;5192;50.328;7.610;2023-07-31T00:03:40;4.40;;;2.35;;
10293;SDS011;5192;50.328;7.610;2023-07-31T00:06:05;6.88;;;2.50;;
10293;SDS011;5192;50.328;7.610;2023-07-31T00:08:33;4.72;;;2.30;;
10293;SDS011;5192;50.328;7.610;2023-07-31T00:11:01;6.32;;;2.65;;
10293;SDS011;5192;50.328;7.610;2023-07-31T00:13:28;4.03;;;2.50;;
10293;SDS011;5192;50.328;7.610;2023-07-31T00:15:56;6.70;;;2.33;;
10293;SDS011;5192;50.328;7.610;2023-07-31T00:18:22;4.40;;;2.08;;
10293;SDS011;5192;50.328;7.610;2023-07-31T00:20:50;4.80;;;2.53;;
10293;SDS011;5192;50.328;7.610;2023-07-31T00:23:17;4.80;;;2.37;;
10293;SDS011;5192;50.328;7.610;2023-07-31T00:25:43;3.38;;;2.30;;
10293;SDS011;5192;50.328;7.610;2023-07-31T00:28:12;4.95;;;2.63;;
10293;SDS011;5192;50.328;7.610;2023-07-31T00:30:39;4.63;;;2.27;;
10293;SDS011;5192;50.328;7.610;2023-07-31T00:33:05;4.75;;;2.75;;
10293;SDS011;5192;50.328;7.610;2023-07-31T00:35:30;5.63;;;2.90;;
10293;SDS011;5192;50.328;7.610;2023-07-31T00:37:59;6.20;;;2.60;;
10293;SDS011;5192;50.328;7.610;2023-07-31T00:40:26;4.47;;;2.57;;
10293;SDS011;5192;50.328;7.610;2023-07-31T00:42:53;6.57;;;2.30;;
10293;SDS011;5192;50.328;7.610;2023-07-31T00:45:18;6.13;;;3.00;;
10293;SDS011;5192;50.328;7.610;2023-07-31T00:47:49;4.90;;;2.80;;
10293;SDS011;5192;50.328;7.610;2023-07-31T00:50:17;3.27;;;2.40;;
10293;SDS011;5192;50.328;7.610;2023-07-31T00:52:45;5.53;;;2.50;;
10293;SDS011;5192;50.328;7.610;2023-07-31T00:55:10;4.77;;;2.67;;
10293;SDS011;5192;50.328;7.610;2023-07-31T00:57:37;4.27;;;2.77;;
10293;SDS011;5192;50.328;7.610;2023-07-31T01:00:08;3.40;;;2.33;;
10293;SDS011;5192;50.328;7.610;2023-07-31T01:02:37;4.50;;;2.47;;
10293;SDS011;5192;50.328;7.610;2023-07-31T01:05:03;4.03;;;2.60;;
10293;SDS011;5192;50.328;7.610;2023-07-31T01:07:49;6.70;;;3.20;;
10293;SDS011;5192;50.328;7.610;2023-07-31T01:10:52;6.50;;;2.93;;
10293;SDS011;5192;50.328;7.610;2023-07-31T01:13:22;5.90;;;2.70;;
10293;SDS011;5192;50.328;7.610;2023-07-31T01:15:50;6.17;;;2.87;;
10293;SDS011;5192;50.328;7.610;2023-07-31T01:18:18;4.87;;;3.07;;
10293;SDS011;5192;50.328;7.610;2023-07-31T01:20:47;3.53;;;2.42;;
10293;SDS011;5192;50.328;7.610;2023-07-31T01:26:03;3.22;;;2.78;;
10293;SDS011;5192;50.328;7.610;2023-07-31T01:29:01;4.97;;;2.70;;
10293;SDS011;5192;50.328;7.610;2023-07-31T01:31:35;5.00;;;2.50;;
10293;SDS011;5192;50.328;7.610;2023-07-31T01:34:06;3.93;;;2.77;;
10293;SDS011;5192;50.328;7.610;2023-07-31T01:36:35;4.43;;;2.90;;
10293;SDS011;5192;50.328;7.610;2023-07-31T01:39:02;4.80;;;2.80;;
10293;SDS011;5192;50.328;7.610;2023-07-31T01:41:30;4.78;;;2.78;;
10293;SDS011;5192;50.328;7.610;2023-07-31T01:43:56;3.60;;;2.60;;
10293;SDS011;5192;50.328;7.610;2023-07-31T01:46:22;4.93;;;2.80;;
10293;SDS011;5192;50.328;7.610;2023-07-31T01:48:50;4.37;;;2.50;;
10293;SDS011;5192;50.328;7.610;2023-07-31T01:51:17;5.00;;;2.90;;
10293;SDS011;5192;50.328;7.610;2023-07-31T01:53:44;5.60;;;2.83;;
10293;SDS011;5192;50.328;7.610;2023-07-31T01:56:11;5.50;;;2.70;;
10293;SDS011;5192;50.328;7.610;2023-07-31T01:58:41;4.15;;;2.47;;
10293;SDS011;5192;50.328;7.610;2023-07-31T02:01:07;5.53;;;2.90;;
10293;SDS011;5192;50.328;7.610;2023-07-31T02:03:34;5.38;;;2.67;;
10293;SDS011;5192;50.328;7.610;2023-07-31T02:06:01;6.25;;;3.17;;
10293;SDS011;5192;50.328;7.610;2023-07-31T02:08:28;7.38;;;3.28;;
10293;SDS011;5192;50.328;7.610;2023-07-31T02:10:54;4.82;;;2.70;;
10293;SDS011;5192;50.328;7.610;2023-07-31T02:13:22;4.80;;;2.55;;
10293;SDS011;5192;50.328;7.610;2023-07-31T02:15:51;3.70;;;2.73;;
10293;SDS011;5192;50.328;7.610;2023-07-31T02:18:18;4.35;;;3.10;;
10293;SDS011;5192;50.328;7.610;2023-07-31T02:20:48;4.80;;;3.15;;
10293;SDS011;5192;50.328;7.610;2023-07-31T02:23:16;3.55;;;2.70;;
10293;SDS011;5192;50.328;7.610;2023-07-31T02:25:42;5.33;;;3.20;;
10293;SDS011;5192;50.328;7.610;2023-07-31T02:28:11;4.27;;;2.97;;
10293;SDS011;5192;50.328;7.610;2023-07-31T02:30:39;5.70;;;2.95;;
10293;SDS011;5192;50.328;7.610;2023-07-31T02:33:06;4.23;;;3.10;;
10293;SDS011;5192;50.328;7.610;2023-07-31T02:35:32;6.57;;;3.27;;
10293;SDS011;5192;50.328;7.610;2023-07-31T02:38:01;3.87;;;2.87;;
10293;SDS011;5192;50.328;7.610;2023-07-31T02:40:29;5.23;;;2.90;;
10293;SDS011;5192;50.328;7.610;2023-07-31T02:42:56;5.00;;;3.30;;
10293;SDS011;5192;50.328;7.610;2023-07-31T02:45:22;6.67;;;3.17;;
10293;SDS011;5192;50.328;7.610;2023-07-31T02:47:51;6.77;;;3.20;;
10293;SDS011;5192;50.328;7.610;2023-07-31T02:50:19;6.00;;;2.93;;
10293;SDS011;5192;50.328;7.610;2023-07-31T02:52:47;8.13;;;3.50;;
10293;SDS011;5192;50.328;7.610;2023-07-31T02:55:12;4.33;;;2.63;;
10293;SDS011;5192;50.328;7.610;2023-07-31T02:57:40;5.20;;;3.07;;
10293;SDS011;5192;50.328;7.610;2023-07-31T03:00:08;5.23;;;2.60;;
10293;SDS011;5192;50.328;7.610;2023-07-31T03:02:35;2.97;;;2.53;;
10293;SDS011;5192;50.328;7.610;2023-07-31T03:05:02;5.80;;;2.73;;
10293;SDS011;5192;50.328;7.610;2023-07-31T03:07:30;5.67;;;2.67;;
10293;SDS011;5192;50.328;7.610;2023-07-31T03:09:57;3.53;;;2.83;;
10293;SDS011;5192;50.328;7.610;2023-07-31T03:12:25;6.70;;;3.00;;
10293;SDS011;5192;50.328;7.610;2023-07-31T03:14:53;3.93;;;2.73;;
10293;SDS011;5192;50.328;7.610;2023-07-31T03:17:19;3.53;;;2.60;;
10293;SDS011;5192;50.328;7.610;2023-07-31T03:19:49;5.27;;;2.70;;
10293;SDS011;5192;50.328;7.610;2023-07-31T03:22:16;3.47;;;2.50;;
10293;SDS011;5192;50.328;7.610;2023-07-31T03:24:44;2.77;;;2.30;;
10293;SDS011;5192;50.328;7.610;2023-07-31T03:27:10;4.67;;;2.93;;
10293;SDS011;5192;50.328;7.610;2023-07-31T03:29:39;5.37;;;3.07;;
10293;SDS011;5192;50.328;7.610;2023-07-31T03:32:06;3.33;;;2.70;;
10293;SDS011;5192;50.328;7.610;2023-07-31T03:34:33;4.57;;;2.60;;
10293;SDS011;5192;50.328;7.610;2023-07-31T03:36:59;3.57;;;2.83;;
10293;SDS011;5192;50.328;7.610;2023-07-31T03:39:30;4.38;;;2.88;;
10293;SDS011;5192;50.328;7.610;2023-07-31T03:41:57;4.17;;;3.07;;
10293;SDS011;5192;50.328;7.610;2023-07-31T03:44:24;4.93;;;2.90;;
10293;SDS011;5192;50.328;7.610;2023-07-31T03:46:51;4.33;;;2.60;;
10293;SDS011;5192;50.328;7.610;2023-07-31T03:49:17;5.20;;;2.80;;
10293;SDS011;5192;50.328;7.610;2023-07-31T03:51:43;3.50;;;2.73;;
10293;SDS011;5192;50.328;7.610;2023-07-31T03:54:11;4.40;;;2.73;;
10293;SDS011;5192;50.328;7.610;2023-07-31T03:56:39;4.27;;;2.73;;
10293;SDS011;5192;50.328;7.610;2023-07-31T03:59:05;4.63;;;2.53;;
10293;SDS011;5192;50.328;7.610;2023-07-31T04:01:32;5.43;;;2.92;;
10293;SDS011;5192;50.328;7.610;2023-07-31T04:03:57;4.97;;;2.73;;
10293;SDS011;5192;50.328;7.610;2023-07-31T04:06:25;4.00;;;2.73;;
10293;SDS011;5192;50.328;7.610;2023-07-31T04:08:52;2.97;;;2.60;;
10293;SDS011;5192;50.328;7.610;2023-07-31T04:11:20;4.13;;;3.20;;
10293;SDS011;5192;50.328;7.610;2023-07-31T04:13:47;3.27;;;2.63;;
10293;SDS011;5192;50.328;7.610;2023-07-31T04:16:15;4.67;;;2.90;;
10293;SDS011;5192;50.328;7.610;2023-07-31T04:18:43;5.20;;;2.93;;
10293;SDS011;5192;50.328;7.610;2023-07-31T04:21:10;4.27;;;2.73;;
10293;SDS011;5192;50.328;7.610;2023-07-31T04:23:36;4.00;;;2.60;;
10293;SDS011;5192;50.328;7.610;2023-07-31T04:26:04;7.77;;;3.30;;
10293;SDS011;5192;50.328;7.610;2023-07-31T04:28:32;4.57;;;3.17;;
10293;SDS011;5192;50.328;7.610;2023-07-31T04:31:00;6.00;;;3.00;;
10293;SDS011;5192;50.328;7.610;2023-07-31T04:33:27;4.15;;;2.95;;
10293;SDS011;5192;50.328;7.610;2023-07-31T04:35:53;7.53;;;2.57;;
10293;SDS011;5192;50.328;7.610;2023-07-31T04:38:20;4.40;;;2.53;;
10293;SDS011;5192;50.328;7.610;2023-07-31T04:40:52;4.67;;;2.63;;
10293;SDS011;5192;50.328;7.610;2023-07-31T04:43:19;4.00;;;2.67;;
10293;SDS011;5192;50.328;7.610;2023-07-31T04:45:47;4.17;;;2.47;;
10293;SDS011;5192;50.328;7.610;2023-07-31T04:48:14;2.77;;;2.53;;
10293;SDS011;5192;50.328;7.610;2023-07-31T04:50:42;5.80;;;2.73;;
10293;SDS011;5192;50.328;7.610;2023-07-31T04:53:08;3.73;;;2.80;;
10293;SDS011;5192;50.328;7.610;2023-07-31T04:55:36;5.13;;;2.80;;
10293;SDS011;5192;50.328;7.610;2023-07-31T04:58:03;4.60;;;2.90;;
10293;SDS011;5192;50.328;7.610;2023-07-31T05:00:29;6.43;;;2.60;;
10293;SDS011;5192;50.328;7.610;2023-07-31T05:02:56;3.40;;;2.77;;
10293;SDS011;5192;50.328;7.610;2023-07-31T05:05:22;6.37;;;2.97;;
10293;SDS011;5192;50.328;7.610;2023-07-31T05:07:49;3.67;;;2.57;;
10293;SDS011;5192;50.328;7.610;2023-07-31T05:10:16;5.10;;;2.93;;
10293;SDS011;5192;50.328;7.610;2023-07-31T05:12:43;3.97;;;2.40;;
10293;SDS011;5192;50.328;7.610;2023-07-31T05:15:10;5.40;;;2.50;;
10293;SDS011;5192;50.328;7.610;2023-07-31T05:17:35;3.27;;;2.60;;
10293;SDS011;5192;50.328;7.610;2023-07-31T05:20:03;4.53;;;2.80;;
10293;SDS011;5192;50.328;7.610;2023-07-31T05:22:32;4.57;;;3.03;;
10293;SDS011;5192;50.328;7.610;2023-07-31T05:24:59;4.97;;;3.07;;
10293;SDS011;5192;50.328;7.610;2023-07-31T05:27:26;4.57;;;2.80;;
10293;SDS011;5192;50.328;7.610;2023-07-31T05:29:54;7.57;;;3.20;;
10293;SDS011;5192;50.328;7.610;2023-07-31T05:32:20;3.90;;;3.03;;
10293;SDS011;5192;50.328;7.610;2023-07-31T05:34:46;3.80;;;2.80;;
10293;SDS011;5192;50.328;7.610;2023-07-31T05:37:13;5.63;;;3.27;;
10293;SDS011;5192;50.328;7.610;2023-07-31T05:39:39;4.90;;;2.80;;
10293;SDS011;5192;50.328;7.610;2023-07-31T05:42:04;6.53;;;3.63;;
10293;SDS011;5192;50.328;7.610;2023-07-31T05:44:31;5.20;;;3.00;;
10293;SDS011;5192;50.328;7.610;2023-07-31T05:46:58;8.00;;;2.73;;
10293;SDS011;5192;50.328;7.610;2023-07-31T05:49:24;4.30;;;2.93;;
10293;SDS011;5192;50.328;7.610;2023-07-31T05:51:52;5.17;;;2.80;;
10293;SDS011;5192;50.328;7.610;2023-07-31T05:54:20;4.97;;;2.70;;
10293;SDS011;5192;50.328;7.610;2023-07-31T05:56:48;7.53;;;3.00;;
10293;SDS011;5192;50.328;7.610;2023-07-31T05:59:16;5.30;;;3.00;;
10293;SDS011;5192;50.328;7.610;2023-07-31T06:01:43;4.50;;;3.27;;
10293;SDS011;5192;50.328;7.610;2023-07-31T06:04:11;6.15;;;2.92;;
10293;SDS011;5192;50.328;7.610;2023-07-31T06:06:37;6.00;;;3.37;;
10293;SDS011;5192;50.328;7.610;2023-07-31T06:09:04;5.67;;;3.30;;
10293;SDS011;5192;50.328;7.610;2023-07-31T06:11:30;5.43;;;3.50;;
10293;SDS011;5192;50.328;7.610;2023-07-31T06:13:57;5.57;;;3.78;;
10293;SDS011;5192;50.328;7.610;2023-07-31T06:16:25;6.27;;;3.80;;
10293;SDS011;5192;50.328;7.610;2023-07-31T06:18:53;5.73;;;3.33;;
10293;SDS011;5192;50.328;7.610;2023-07-31T06:21:18;5.10;;;3.13;;
10293;SDS011;5192;50.328;7.610;2023-07-31T06:23:46;5.00;;;3.10;;
10293;SDS011;5192;50.328;7.610;2023-07-31T06:26:14;4.72;;;3.45;;
10293;SDS011;5192;50.328;7.610;2023-07-31T06:28:39;5.75;;;3.42;;
10293;SDS011;5192;50.328;7.610;2023-07-31T06:31:07;6.10;;;3.65;;
10293;SDS011;5192;50.328;7.610;2023-07-31T06:33:34;6.80;;;3.25;;
10293;SDS011;5192;50.328;7.610;2023-07-31T06:36:00;6.50;;;3.20;;
10293;SDS011;5192;50.328;7.610;2023-07-31T06:38:28;6.03;;;3.08;;
10293;SDS011;5192;50.328;7.610;2023-07-31T06:40:55;4.60;;;3.00;;
10293;SDS011;5192;50.328;7.610;2023-07-31T06:43:22;6.53;;;3.42;;
10293;SDS011;5192;50.328;7.610;2023-07-31T06:45:49;5.75;;;3.30;;
10293;SDS011;5192;50.328;7.610;2023-07-31T06:48:17;6.57;;;3.90;;
10293;SDS011;5192;50.328;7.610;2023-07-31T06:50:45;7.20;;;3.97;;
10293;SDS011;5192;50.328;7.610;2023-07-31T06:53:13;6.00;;;3.55;;
10293;SDS011;5192;50.328;7.610;2023-07-31T06:55:40;8.90;;;3.77;;
10293;SDS011;5192;50.328;7.610;2023-07-31T06:58:08;6.83;;;3.67;;
10293;SDS011;5192;50.328;7.610;2023-07-31T07:00:34;7.97;;;4.00;;
10293;SDS011;5192;50.328;7.610;2023-07-31T07:03:02;6.07;;;3.80;;
10293;SDS011;5192;50.328;7.610;2023-07-31T07:05:27;7.63;;;3.37;;
10293;SDS011;5192;50.328;7.610;2023-07-31T07:07:55;6.03;;;3.57;;
10293;SDS011;5192;50.328;7.610;2023-07-31T07:10:22;9.23;;;3.85;;
10293;SDS011;5192;50.328;7.610;2023-07-31T07:12:48;6.07;;;3.70;;
10293;SDS011;5192;50.328;7.610;2023-07-31T07:15:15;5.00;;;3.53;;
10293;SDS011;5192;50.328;7.610;2023-07-31T07:17:43;4.72;;;3.55;;
10293;SDS011;5192;50.328;7.610;2023-07-31T07:20:10;6.33;;;3.47;;
10293;SDS011;5192;50.328;7.610;2023-07-31T07:22:36;7.13;;;3.70;;
10293;SDS011;5192;50.328;7.610;2023-07-31T07:25:04;5.13;;;3.40;;
10293;SDS011;5192;50.328;7.610;2023-07-31T07:27:34;6.80;;;3.20;;
10293;SDS011;5192;50.328;7.610;2023-07-31T07:30:01;7.70;;;3.67;;
10293;SDS011;5192;50.328;7.610;2023-07-31T07:32:26;7.17;;;3.60;;
10293;SDS011;5192;50.328;7.610;2023-07-31T07:34:53;6.70;;;3.50;;
10293;SDS011;5192;50.328;7.610;2023-07-31T07:37:21;7.20;;;3.78;;
10293;SDS011;5192;50.328;7.610;2023-07-31T07:39:48;6.10;;;3.13;;
10293;SDS011;5192;50.328;7.610;2023-07-31T07:42:17;5.47;;;3.47;;
10293;SDS011;5192;50.328;7.610;2023-07-31T07:44:44;7.55;;;3.30;;
10293;SDS011;5192;50.328;7.610;2023-07-31T07:47:12;6.97;;;3.25;;
10293;SDS011;5192;50.328;7.610;2023-07-31T07:49:39;6.57;;;4.20;;
10293;SDS011;5192;50.328;7.610;2023-07-31T07:52:07;7.25;;;3.72;;
10293;SDS011;5192;50.328;7.610;2023-07-31T07:54:33;7.13;;;3.67;;
10293;SDS011;5192;50.328;7.610;2023-07-31T07:57:00;5.60;;;3.58;;
10293;SDS011;5192;50.328;7.610;2023-07-31T07:59:30;5.45;;;3.58;;
10293;SDS011;5192;50.328;7.610;2023-07-31T08:01:56;5.03;;;3.35;;
10293;SDS011;5192;50.328;7.610;2023-07-31T08:04:24;6.72;;;3.30;;
10293;SDS011;5192;50.328;7.610;2023-07-31T08:06:49;5.00;;;3.50;;
10293;SDS011;5192;50.328;7.610;2023-07-31T08:09:17;7.63;;;3.80;;
10293;SDS011;5192;50.328;7.610;2023-07-31T08:11:44;8.02;;;3.80;;
10293;SDS011;5192;50.328;7.610;2023-07-31T08:14:11;5.28;;;3.58;;
10293;SDS011;5192;50.328;7.610;2023-07-31T08:16:36;5.95;;;3.47;;
10293;SDS011;5192;50.328;7.610;2023-07-31T08:19:03;6.87;;;4.07;;
10293;SDS011;5192;50.328;7.610;2023-07-31T08:21:31;5.88;;;3.60;;
10293;SDS011;5192;50.328;7.610;2023-07-31T08:23:59;7.47;;;4.00;;
10293;SDS011;5192;50.328;7.610;2023-07-31T08:26:25;7.37;;;3.80;;
10293;SDS011;5192;50.328;7.610;2023-07-31T08:28:53;6.70;;;4.03;;
10293;SDS011;5192;50.328;7.610;2023-07-31T08:31:19;6.93;;;3.83;;
10293;SDS011;5192;50.328;7.610;2023-07-31T08:33:46;5.80;;;3.63;;
10293;SDS011;5192;50.328;7.610;2023-07-31T08:36:11;6.13;;;4.03;;
10293;SDS011;5192;50.328;7.610;2023-07-31T08:38:38;7.95;;;4.00;;
10293;SDS011;5192;50.328;7.610;2023-07-31T08:41:06;6.78;;;4.03;;
10293;SDS011;5192;50.328;7.610;2023-07-31T08:43:34;7.28;;;3.70;;
10293;SDS011;5192;50.328;7.610;2023-07-31T08:46:01;6.03;;;3.75;;
10293;SDS011;5192;50.328;7.610;2023-07-31T08:48:28;7.40;;;4.20;;
10293;SDS011;5192;50.328;7.610;2023-07-31T08:50:57;5.82;;;3.40;;
10293;SDS011;5192;50.328;7.610;2023-07-31T08:53:24;7.33;;;3.87;;
10293;SDS011;5192;50.328;7.610;2023-07-31T08:55:52;6.53;;;3.80;;
10293;SDS011;5192;50.328;7.610;2023-07-31T08:58:19;6.97;;;3.90;;
10293;SDS011;5192;50.328;7.610;2023-07-31T09:00:49;7.73;;;3.77;;
10293;SDS011;5192;50.328;7.610;2023-07-31T09:03:18;6.00;;;3.47;;
10293;SDS011;5192;50.328;7.610;2023-07-31T09:05:46;7.03;;;3.73;;
10293;SDS011;5192;50.328;7.610;2023-07-31T09:08:13;5.30;;;3.70;;
10293;SDS011;5192;50.328;7.610;2023-07-31T09:10:45;5.95;;;3.45;;
10293;SDS011;5192;50.328;7.610;2023-07-31T09:13:13;8.77;;;4.00;;
10293;SDS011;5192;50.328;7.610;2023-07-31T09:15:39;6.77;;;3.50;;
10293;SDS011;5192;50.328;7.610;2023-07-31T09:18:09;6.83;;;3.67;;
10293;SDS011;5192;50.328;7.610;2023-07-31T09:20:36;6.00;;;3.37;;
10293;SDS011;5192;50.328;7.610;2023-07-31T09:25:48;6.53;;;3.80;;
10293;SDS011;5192;50.328;7.610;2023-07-31T09:28:16;4.97;;;3.47;;
10293;SDS011;5192;50.328;7.610;2023-07-31T09:30:49;4.23;;;3.33;;
10293;SDS011;5192;50.328;7.610;2023-07-31T09:33:18;5.72;;;3.40;;
10293;SDS011;5192;50.328;7.610;2023-07-31T09:35:44;5.73;;;3.03;;
10293;SDS011;5192;50.328;7.610;2023-07-31T09:38:14;6.00;;;3.10;;
10293;SDS011;5192;50.328;7.610;2023-07-31T09:43:27;4.05;;;3.13;;
10293;SDS011;5192;50.328;7.610;2023-07-31T09:45:55;5.00;;;3.35;;
10293;SDS011;5192;50.328;7.610;2023-07-31T09:48:25;4.80;;;3.40;;
10293;SDS011;5192;50.328;7.610;2023-07-31T09:50:53;4.97;;;2.97;;
10293;SDS011;5192;50.328;7.610;2023-07-31T09:53:27;5.28;;;3.53;;
10293;SDS011;5192;50.328;7.610;2023-07-31T09:56:02;6.13;;;3.15;;
10293;SDS011;5192;50.328;7.610;2023-07-31T09:58:30;4.35;;;3.20;;
10293;SDS011;5192;50.328;7.610;2023-07-31T10:01:02;5.70;;;3.53;;
10293;SDS011;5192;50.328;7.610;2023-07-31T10:03:29;5.03;;;2.92;;
10293;SDS011;5192;50.328;7.610;2023-07-31T10:05:58;6.22;;;3.47;;
10293;SDS011;5192;50.328;7.610;2023-07-31T10:08:30;6.18;;;3.42;;
10293;SDS011;5192;50.328;7.610;2023-07-31T10:11:03;4.18;;;2.97;;
10293;SDS011;5192;50.328;7.610;2023-07-31T10:13:35;4.93;;;3.03;;
10293;SDS011;5192;50.328;7.610;2023-07-31T10:16:03;5.50;;;3.10;;
10293;SDS011;5192;50.328;7.610;2023-07-31T10:18:30;3.85;;;2.72;;
10293;SDS011;5192;50.328;7.610;2023-07-31T10:20:58;4.28;;;2.72;;
10293;SDS011;5192;50.328;7.610;2023-07-31T10:23:28;4.03;;;2.97;;
10293;SDS011;5192;50.328;7.610;2023-07-31T10:25:56;4.45;;;2.90;;
10293;SDS011;5192;50.328;7.610;2023-07-31T10:28:25;5.03;;;2.55;;
10293;SDS011;5192;50.328;7.610;2023-07-31T10:30:54;5.68;;;3.20;;
10293;SDS011;5192;50.328;7.610;2023-07-31T10:33:25;3.88;;;2.70;;
10293;SDS011;5192;50.328;7.610;2023-07-31T10:36:10;5.00;;;3.20;;
10293;SDS011;5192;50.328;7.610;2023-07-31T10:38:40;5.00;;;3.20;;
10293;SDS011;5192;50.328;7.610;2023-07-31T10:41:08;3.70;;;3.03;;
10293;SDS011;5192;50.328;7.610;2023-07-31T10:43:39;5.10;;;3.25;;
10293;SDS011;5192;50.328;7.610;2023-07-31T10:46:09;4.93;;;3.20;;
10293;SDS011;5192;50.328;7.610;2023-07-31T10:48:40;5.03;;;2.80;;
10293;SDS011;5192;50.328;7.610;2023-07-31T10:51:08;4.10;;;2.65;;
10293;SDS011;5192;50.328;7.610;2023-07-31T10:53:37;5.45;;;2.97;;
10293;SDS011;5192;50.328;7.610;2023-07-31T10:56:09;3.63;;;2.90;;
10293;SDS011;5192;50.328;7.610;2023-07-31T10:58:43;4.75;;;2.60;;
10293;SDS011;5192;50.328;7.610;2023-07-31T11:01:15;5.25;;;2.85;;
10293;SDS011;5192;50.328;7.610;2023-07-31T11:06:36;4.10;;;2.72;;
10293;SDS011;5192;50.328;7.610;2023-07-31T11:09:03;4.53;;;2.65;;
10293;SDS011;5192;50.328;7.610;2023-07-31T11:11:30;3.40;;;2.53;;
10293;SDS011;5192;50.328;7.610;2023-07-31T11:14:00;4.40;;;2.72;;
10293;SDS011;5192;50.328;7.610;2023-07-31T11:16:28;7.32;;;2.88;;
10293;SDS011;5192;50.328;7.610;2023-07-31T11:18:55;3.35;;;2.78;;
10293;SDS011;5192;50.328;7.610;2023-07-31T11:21:22;4.70;;;2.80;;
10293;SDS011;5192;50.328;7.610;2023-07-31T11:23:49;4.13;;;2.97;;
10293;SDS011;5192;50.328;7.610;2023-07-31T11:26:18;4.35;;;2.70;;
10293;SDS011;5192;50.328;7.610;2023-07-31T11:28:49;4.47;;;2.75;;
10293;SDS011;5192;50.328;7.610;2023-07-31T11:31:16;3.50;;;2.75;;
10293;SDS011;5192;50.328;7.610;2023-07-31T11:33:44;5.13;;;2.83;;
10293;SDS011;5192;50.328;7.610;2023-07-31T11:36:18;3.90;;;2.58;;
10293;SDS011;5192;50.328;7.610;2023-07-31T11:38:45;6.80;;;2.70;;
10293;SDS011;5192;50.328;7.610;2023-07-31T11:41:15;3.05;;;2.47;;
10293;SDS011;5192;50.328;7.610;2023-07-31T11:43:43;4.05;;;2.67;;
10293;SDS011;5192;50.328;7.610;2023-07-31T11:46:10;4.20;;;2.60;;
10293;SDS011;5192;50.328;7.610;2023-07-31T11:48:37;4.43;;;2.50;;
10293;SDS011;5192;50.328;7.610;2023-07-31T11:51:04;3.78;;;2.58;;
10293;SDS011;5192;50.328;7.610;2023-07-31T11:56:21;3.83;;;2.35;;
10293;SDS011;5192;50.328;7.610;2023-07-31T11:58:53;2.95;;;2.05;;
10293;SDS011;5192;50.328;7.610;2023-07-31T12:01:24;3.85;;;2.28;;
10293;SDS011;5192;50.328;7.610;2023-07-31T12:03:54;2.78;;;2.20;;
10293;SDS011;5192;50.328;7.610;2023-07-31T12:06:32;2.30;;;1.85;;
10293;SDS011;5192;50.328;7.610;2023-07-31T12:09:05;2.92;;;2.40;;
10293;SDS011;5192;50.328;7.610;2023-07-31T12:11:48;4.72;;;2.55;;
10293;SDS011;5192;50.328;7.610;2023-07-31T12:17:00;2.67;;;2.00;;
10293;SDS011;5192;50.328;7.610;2023-07-31T12:19:33;3.13;;;2.20;;
10293;SDS011;5192;50.328;7.610;2023-07-31T12:22:01;4.40;;;2.70;;
10293;SDS011;5192;50.328;7.610;2023-07-31T12:24:42;2.20;;;2.00;;
10293;SDS011;5192;50.328;7.610;2023-07-31T12:27:14;3.63;;;2.45;;
10293;SDS011;5192;50.328;7.610;2023-07-31T12:29:44;3.00;;;2.22;;
10293;SDS011;5192;50.328;7.610;2023-07-31T12:34:55;4.90;;;2.80;;
10293;SDS011;5192;50.328;7.610;2023-07-31T12:37:25;4.40;;;2.45;;
10293;SDS011;5192;50.328;7.610;2023-07-31T12:39:52;3.78;;;2.33;;
10293;SDS011;5192;50.328;7.610;2023-07-31T12:42:20;3.33;;;2.22;;
10293;SDS011;5192;50.328;7.610;2023-07-31T12:44:47;2.58;;;2.38;;
10293;SDS011;5192;50.328;7.610;2023-07-31T12:47:15;2.67;;;2.47;;
10293;SDS011;5192;50.328;7.610;2023-07-31T12:49:42;3.40;;;2.30;;
10293;SDS011;5192;50.328;7.610;2023-07-31T12:52:10;3.22;;;2.28;;
10293;SDS011;5192;50.328;7.610;2023-07-31T12:54:38;3.90;;;2.92;;
10293;SDS011;5192;50.328;7.610;2023-07-31T12:57:06;3.10;;;2.58;;
10293;SDS011;5192;50.328;7.610;2023-07-31T12:59:33;2.38;;;2.15;;
10293;SDS011;5192;50.328;7.610;2023-07-31T13:01:59;3.63;;;2.45;;
10293;SDS011;5192;50.328;7.610;2023-07-31T13:04:27;3.75;;;2.70;;
10293;SDS011;5192;50.328;7.610;2023-07-31T13:06:53;3.10;;;2.20;;
10293;SDS011;5192;50.328;7.610;2023-07-31T13:09:18;2.55;;;2.20;;
10293;SDS011;5192;50.328;7.610;2023-07-31T13:11:45;2.45;;;2.20;;
10293;SDS011;5192;50.328;7.610;2023-07-31T13:14:13;3.50;;;2.33;;
10293;SDS011;5192;50.328;7.610;2023-07-31T13:16:39;3.63;;;2.28;;
10293;SDS011;5192;50.328;7.610;2023-07-31T13:19:06;4.47;;;2.35;;
10293;SDS011;5192;50.328;7.610;2023-07-31T13:21:32;3.30;;;2.17;;
10293;SDS011;5192;50.328;7.610;2023-07-31T13:24:02;5.57;;;2.40;;
10293;SDS011;5192;50.328;7.610;2023-07-31T13:26:29;3.97;;;2.08;;
10293;SDS011;5192;50.328;7.610;2023-07-31T13:28:56;2.78;;;1.95;;
10293;SDS011;5192;50.328;7.610;2023-07-31T13:31:22;5.75;;;2.28;;
10293;SDS011;5192;50.328;7.610;2023-07-31T13:33:50;2.42;;;2.00;;
10293;SDS011;5192;50.328;7.610;2023-07-31T13:36:17;3.42;;;2.08;;
10293;SDS011;5192;50.328;7.610;2023-07-31T13:38:43;2.30;;;1.83;;
10293;SDS011;5192;50.328;7.610;2023-07-31T13:41:10;3.50;;;2.13;;
10293;SDS011;5192;50.328;7.610;2023-07-31T13:43:38;1.98;;;1.73;;
10293;SDS011;5192;50.328;7.610;2023-07-31T13:46:07;2.47;;;1.80;;
10293;SDS011;5192;50.328;7.610;2023-07-31T13:48:37;1.95;;;1.70;;
10293;SDS011;5192;50.328;7.610;2023-07-31T13:51:03;3.42;;;1.90;;
10293;SDS011;5192;50.328;7.610;2023-07-31T13:53:31;4.15;;;2.20;;
10293;SDS011;5192;50.328;7.610;2023-07-31T13:55:58;3.30;;;2.17;;
10293;SDS011;5192;50.328;7.610;2023-07-31T13:58:23;3.20;;;1.60;;
10293;SDS011;5192;50.328;7.610;2023-07-31T14:00:50;2.13;;;1.90;;
10293;SDS011;5192;50.328;7.610;2023-07-31T14:03:16;1.60;;;1.30;;
10293;SDS011;5192;50.328;7.610;2023-07-31T14:05:44;2.83;;;2.03;;
10293;SDS011;5192;50.328;7.610;2023-07-31T14:08:10;3.65;;;1.73;;
10293;SDS011;5192;50.328;7.610;2023-07-31T14:10:37;2.88;;;1.90;;
10293;SDS011;5192;50.328;7.610;2023-07-31T14:13:04;2.58;;;2.03;;
10293;SDS011;5192;50.328;7.610;2023-07-31T14:15:31;2.83;;;1.80;;
10293;SDS011;5192;50.328;7.610;2023-07-31T14:17:57;2.17;;;1.73;;
10293;SDS011;5192;50.328;7.610;2023-07-31T14:20:23;2.40;;;1.70;;
10293;SDS011;5192;50.328;7.610;2023-07-31T14:22:50;3.53;;;1.83;;
10293;SDS011;5192;50.328;7.610;2023-07-31T14:25:18;3.10;;;1.65;;
10293;SDS011;5192;50.328;7.610;2023-07-31T14:27:44;4.25;;;1.80;;
10293;SDS011;5192;50.328;7.610;2023-07-31T14:30:14;1.88;;;1.67;;
10293;SDS011;5192;50.328;7.610;2023-07-31T14:32:42;2.70;;;2.00;;
10293;SDS011;5192;50.328;7.610;2023-07-31T14:35:10;3.78;;;1.98;;
10293;SDS011;5192;50.328;7.610;2023-07-31T14:37:38;2.03;;;1.83;;
10293;SDS011;5192;50.328;7.610;2023-07-31T14:40:08;2.33;;;1.90;;
10293;SDS011;5192;50.328;7.610;2023-07-31T14:42:37;3.10;;;1.90;;
10293;SDS011;5192;50.328;7.610;2023-07-31T14:45:06;2.13;;;1.90;;
10293;SDS011;5192;50.328;7.610;2023-07-31T14:47:32;3.88;;;1.80;;
10293;SDS011;5192;50.328;7.610;2023-07-31T14:49:59;2.35;;;1.90;;
10293;SDS011;5192;50.328;7.610;2023-07-31T14:52:25;3.63;;;1.67;;
10293;SDS011;5192;50.328;7.610;2023-07-31T14:54:51;2.90;;;1.80;;
10293;SDS011;5192;50.328;7.610;2023-07-31T14:57:17;4.03;;;2.20;;
10293;SDS011;5192;50.328;7.610;2023-07-31T14:59:43;2.70;;;1.70;;
10293;SDS011;5192;50.328;7.610;2023-07-31T15:02:12;3.33;;;2.00;;
10293;SDS011;5192;50.328;7.610;2023-07-31T15:04:37;2.88;;;1.80;;
10293;SDS011;5192;50.328;7.610;2023-07-31T15:07:06;2.65;;;1.52;;
10293;SDS011;5192;50.328;7.610;2023-07-31T15:09:33;2.28;;;1.88;;
10293;SDS011;5192;50.328;7.610;2023-07-31T15:11:59;3.33;;;2.00;;
10293;SDS011;5192;50.328;7.610;2023-07-31T15:14:26;1.90;;;1.60;;
10293;SDS011;5192;50.328;7.610;2023-07-31T15:16:56;2.50;;;1.70;;
10293;SDS011;5192;50.328;7.610;2023-07-31T15:19:24;3.60;;;2.28;;
10293;SDS011;5192;50.328;7.610;2023-07-31T15:21:52;2.67;;;1.90;;
10293;SDS011;5192;50.328;7.610;2023-07-31T15:24:19;4.05;;;2.13;;